x

Diamond Shoals (41025) Wave Buoy

6:50am - Sat 23rd Aug 2014 All times are EDT. -4 hours from GMT.

  • Sig Wave height 2.0ft
  • Swell Direction
  • Peak Period 8s
  • Average Period 5s
  • Wind
    9mph, 11mph gusts
  • Air Temp 78°f
  • Sea Pressure 1012.8mb
  • Diamond Shoals
  • Diamond Shoals

More Historic Weather Station data

Upgrade to MSW Pro to gain access to the past 30 days of data for over 8000 Wavebouys and Weather Stations around the globe.

Join Pro

Comparision Forecast

View Surf forecast
   
Sat 08/23 6:50am 2ft 8s 5s 9 11 mph 1012.8mb 78f
5:50am 2ft 8s 5s 9 11 mph 1012.6mb 78f
4:50am 2ft 6s 5s 9 13 mph 1012.5mb 78f
3:50am 2ft 7s 5s 9 11 mph 1012.9mb 78f
2:50am 2ft 7s 5s 9 11 mph 1013.1mb 78f
1:50am 2ft 8s 5s 9 11 mph 1013.2mb 78f
12:50am 2ft 8s 5s 7 9 mph 1013.7mb 78f
Fri 08/22 11:50pm 2ft 8s 4s 7 9 mph 1013.9mb 78f
10:50pm 1.6ft 8s 4s 9 11 mph 1013.8mb 79f
9:50pm 1.6ft 7s 4s 13 16 mph 1013.4mb 79f
8:50pm 1.6ft 8s 4s 7 11 mph 1013.5mb 80f
7:50pm 2ft 8s 4s 7 9 mph 1013.4mb 80f
6:50pm 2ft 8s 4s 9 11 mph 1012.9mb 81f
5:50pm 2ft 8s 4s 11 13 mph 1012.9mb 83f
4:50pm 2ft 8s 4s 11 16 mph 1013.2mb 83f
3:50pm 2ft 8s 4s 11 13 mph 1013.4mb 82f
2:50pm 2ft 8s 4s 11 16 mph 1013.8mb 81f
1:50pm 2ft 8s 4s 11 13 mph 1014.4mb 80f
12:50pm 2ft 8s 4s 7 9 mph 1014.9mb 80f
11:50am 2.5ft 8s 4s 7 9 mph 1015.5mb 79f
10:50am 2.5ft 9s 4s 7 9 mph 1015.5mb 79f
9:50am 2.5ft 9s 4s 9
mph
1015.3mb 80f
8:50am 2.5ft 8s 4s 13 16 mph 1014.7mb 82f
7:50am 2.5ft 9s 4s 11 13 mph 1014.9mb 82f
6:50am 2.5ft 8s 4s 11 13 mph 1014.5mb 82f
5:50am 2ft 8s 4s 9 11 mph 1014.3mb 81f
4:50am 2.5ft 8s 4s 11 13 mph 1014.1mb 81f
3:50am 2.5ft 9s 4s 11 13 mph 1014.8mb 81f
2:50am 2.5ft 8s 5s 11 13 mph 1015.1mb 81f
1:50am 2.5ft 8s 5s 9 11 mph 1015.6mb 81f
12:50am 2.5ft 8s 5s 9 11 mph 1015.8mb 81f
Thu 08/21 11:50pm 2.5ft 9s 6s 9 11 mph 1016.3mb 81f
10:50pm 2.5ft 9s 6s 7 9 mph 1016.9mb 81f
9:50pm 2.5ft 9s 6s 9 11 mph 1016.9mb 81f
8:50pm 2.5ft 9s 6s 9 11 mph 1016.2mb 81f
7:50pm 2.5ft 9s 6s 7 9 mph 1016.3mb 81f
6:50pm 2ft 8s 6s 7 9 mph 1016.2mb 82f
5:50pm 2.5ft 9s 6s 7 9 mph 1016.4mb 82f
4:50pm 2.5ft 9s 6s 9 11 mph 1016.6mb 82f
3:50pm 2.5ft 9s 6s 9 11 mph 1016.6mb 82f
2:50pm 2.5ft 9s 6s 7 9 mph 1017.1mb 81f
1:50pm 2.5ft 8s 6s 7 9 mph 1017.2mb 81f
12:50pm 2.5ft 8s 6s 7 9 mph 1017.8mb 80f
11:50am 2.5ft 9s 6s 4 7 mph 1018.1mb 80f
10:50am 2.5ft 9s 6s 7
mph
1017.9mb 80f
9:50am 2.5ft 9s 6s 7 9 mph 1017.9mb 80f
8:50am 2.5ft 9s 6s 7 9 mph 1017.8mb 80f
7:50am 2.5ft 8s 6s 7 9 mph 1017.4mb 80f
6:50am 2.5ft 8s 6s 4 7 mph 1017mb 80f
5:50am 2.5ft 7s 6s 4 7 mph 1016.2mb 79f
4:50am 2.5ft 9s 6s 4 7 mph 1015.7mb 79f
3:50am 2.5ft 7s 6s 4 7 mph 1015.6mb 78f
2:50am 2.5ft 8s 6s 4 7 mph 1016mb 78f
1:50am 2.5ft 8s 6s  -  mph 1016.3mb 78f
12:50am 2.5ft 9s 6s 2 4 mph 1017.2mb 78f
Wed 08/20 11:50pm 2.5ft 6s 6s  -  mph 1017mb 78f
10:50pm 2ft 6s 6s  -  2 mph 1017mb 78f
9:50pm 2.5ft 6s 6s 2 4 mph 1016.2mb 78f
8:50pm 2.5ft 6s 6s 2 7 mph 1015.7mb 77f
7:50pm 2.5ft 7s 5s 4 7 mph 1015.3mb 77f
6:50pm 2.5ft 6s 6s 7 9 mph 1015mb 78f
5:50pm 2.5ft 10s 5s 7 11 mph 1014.9mb 78f
4:50pm 2.5ft 7s 5s 7 9 mph 1014.8mb 78f
3:50pm 2.5ft 8s 5s 7 9 mph 1014.7mb 78f
2:50pm 2.5ft 7s 5s 9 13 mph 1014.4mb 78f
1:50pm 2ft 7s 5s 9 11 mph 1014.4mb 78f
10:50am 2ft 8s 5s 7 9 mph 1014.3mb 78f
9:50am 2.5ft 7s 5s 9 11 mph 1013.8mb 78f
8:50am 2.5ft 8s 5s 9 11 mph 1013.1mb 78f
7:50am 2.5ft 7s 5s 9 13 mph 1012.6mb 78f
6:50am 2.5ft 7s 5s 9 11 mph 1011.6mb 79f
5:50am 2.5ft 6s 5s 9 11 mph 1010.5mb 78f
4:50am 2.5ft 6s 5s 9 13 mph 1010.4mb 79f
3:50am 2.5ft 7s 5s 7
mph
1010.4mb 79f
2:50am 2.5ft 7s 5s 7 9 mph 1010mb 79f
1:50am 2.5ft 7s 5s 4 7 mph 1010.7mb 79f
12:50am 2.5ft 6s 4s 7 9 mph 1010.5mb 79f
Tue 08/19 11:50pm 2.5ft 7s 5s 11
mph
1010.9mb 80f
10:50pm 2.5ft 7s 5s 13
mph
1010.9mb 80f
9:50pm 2.5ft 7s 5s 11 13 mph 1011mb 81f
8:50pm 3ft 6s 4s 11 13 mph 1010.1mb 80f
7:50pm 3.5ft 7s 5s 9 11 mph 1009.6mb 80f
6:50pm 3.5ft 6s 5s 11 13 mph 1009.2mb 80f
5:50pm 4ft 6s 5s 11 13 mph 1009.2mb 80f
4:50pm 3.5ft 7s 4s 13 16 mph 1009.2mb 80f
3:50pm 3.5ft 7s 4s 16 18 mph 1009mb 80f
2:50pm 3.5ft 7s 5s 18 20 mph 1009.2mb 80f
1:50pm 3.5ft 7s 4s 18 20 mph 1009.4mb 80f
12:50pm 3.5ft 6s 4s 16 18 mph 1009.7mb 80f